sensor_id;sensor_type;location;lat;lon;timestamp;P1;durP1;ratioP1;P2;durP2;ratioP2
11921;SDS011;6021;51.182;3.160;2024-02-04T00:01:30;15.57;;;4.93;;
11921;SDS011;6021;51.182;3.160;2024-02-04T00:03:58;17.97;;;5.33;;
11921;SDS011;6021;51.182;3.160;2024-02-04T00:06:27;13.20;;;5.00;;
11921;SDS011;6021;51.182;3.160;2024-02-04T00:08:55;17.83;;;5.73;;
11921;SDS011;6021;51.182;3.160;2024-02-04T00:11:23;15.10;;;4.80;;
11921;SDS011;6021;51.182;3.160;2024-02-04T00:13:52;16.43;;;5.20;;
11921;SDS011;6021;51.182;3.160;2024-02-04T00:16:20;15.57;;;5.50;;
11921;SDS011;6021;51.182;3.160;2024-02-04T00:18:48;14.23;;;5.27;;
11921;SDS011;6021;51.182;3.160;2024-02-04T00:21:17;13.80;;;5.10;;
11921;SDS011;6021;51.182;3.160;2024-02-04T00:23:45;16.07;;;5.40;;
11921;SDS011;6021;51.182;3.160;2024-02-04T00:26:14;11.67;;;4.63;;
11921;SDS011;6021;51.182;3.160;2024-02-04T00:28:42;10.90;;;4.47;;
11921;SDS011;6021;51.182;3.160;2024-02-04T00:31:10;10.30;;;4.20;;
11921;SDS011;6021;51.182;3.160;2024-02-04T00:33:39;15.57;;;4.43;;
11921;SDS011;6021;51.182;3.160;2024-02-04T00:36:07;13.77;;;4.43;;
11921;SDS011;6021;51.182;3.160;2024-02-04T00:38:36;10.57;;;4.50;;
11921;SDS011;6021;51.182;3.160;2024-02-04T00:41:04;11.50;;;4.20;;
11921;SDS011;6021;51.182;3.160;2024-02-04T00:43:32;13.60;;;4.87;;
11921;SDS011;6021;51.182;3.160;2024-02-04T00:46:01;11.87;;;4.43;;
11921;SDS011;6021;51.182;3.160;2024-02-04T00:48:30;12.77;;;4.40;;
11921;SDS011;6021;51.182;3.160;2024-02-04T00:50:59;15.10;;;4.40;;
11921;SDS011;6021;51.182;3.160;2024-02-04T00:53:27;15.70;;;4.50;;
11921;SDS011;6021;51.182;3.160;2024-02-04T00:55:57;12.83;;;4.07;;
11921;SDS011;6021;51.182;3.160;2024-02-04T00:58:25;11.90;;;4.60;;
11921;SDS011;6021;51.182;3.160;2024-02-04T01:00:54;12.33;;;4.10;;
11921;SDS011;6021;51.182;3.160;2024-02-04T01:03:22;13.30;;;4.37;;
11921;SDS011;6021;51.182;3.160;2024-02-04T01:05:50;13.90;;;4.23;;
11921;SDS011;6021;51.182;3.160;2024-02-04T01:08:19;12.60;;;4.30;;
11921;SDS011;6021;51.182;3.160;2024-02-04T01:10:47;10.73;;;3.93;;
11921;SDS011;6021;51.182;3.160;2024-02-04T01:13:17;9.13;;;3.80;;
11921;SDS011;6021;51.182;3.160;2024-02-04T01:15:46;11.93;;;4.20;;
11921;SDS011;6021;51.182;3.160;2024-02-04T01:18:14;9.67;;;3.80;;
11921;SDS011;6021;51.182;3.160;2024-02-04T01:20:42;13.17;;;4.53;;
11921;SDS011;6021;51.182;3.160;2024-02-04T01:23:11;11.47;;;4.30;;
11921;SDS011;6021;51.182;3.160;2024-02-04T01:25:39;16.50;;;4.63;;
11921;SDS011;6021;51.182;3.160;2024-02-04T01:28:08;9.90;;;3.93;;
11921;SDS011;6021;51.182;3.160;2024-02-04T01:30:36;12.93;;;4.07;;
11921;SDS011;6021;51.182;3.160;2024-02-04T01:33:05;12.53;;;4.53;;
11921;SDS011;6021;51.182;3.160;2024-02-04T01:35:33;14.30;;;4.43;;
11921;SDS011;6021;51.182;3.160;2024-02-04T01:38:01;16.77;;;4.80;;
11921;SDS011;6021;51.182;3.160;2024-02-04T01:40:30;14.40;;;4.63;;
11921;SDS011;6021;51.182;3.160;2024-02-04T01:42:58;14.77;;;4.40;;
11921;SDS011;6021;51.182;3.160;2024-02-04T01:45:27;11.93;;;4.50;;
11921;SDS011;6021;51.182;3.160;2024-02-04T01:47:55;13.93;;;4.53;;
11921;SDS011;6021;51.182;3.160;2024-02-04T01:50:24;12.83;;;4.83;;
11921;SDS011;6021;51.182;3.160;2024-02-04T01:52:52;12.33;;;4.33;;
11921;SDS011;6021;51.182;3.160;2024-02-04T01:55:21;10.13;;;4.20;;
11921;SDS011;6021;51.182;3.160;2024-02-04T01:57:49;13.47;;;4.70;;
11921;SDS011;6021;51.182;3.160;2024-02-04T02:00:18;13.63;;;4.73;;
11921;SDS011;6021;51.182;3.160;2024-02-04T02:02:47;10.20;;;3.93;;
11921;SDS011;6021;51.182;3.160;2024-02-04T02:05:17;12.83;;;4.40;;
11921;SDS011;6021;51.182;3.160;2024-02-04T02:07:45;9.70;;;3.80;;
11921;SDS011;6021;51.182;3.160;2024-02-04T02:10:15;9.20;;;3.70;;
11921;SDS011;6021;51.182;3.160;2024-02-04T02:12:50;10.13;;;3.60;;
11921;SDS011;6021;51.182;3.160;2024-02-04T02:15:18;9.13;;;3.80;;
11921;SDS011;6021;51.182;3.160;2024-02-04T02:21:07;13.40;;;3.67;;
11921;SDS011;6021;51.182;3.160;2024-02-04T02:24:03;11.63;;;3.63;;
11921;SDS011;6021;51.182;3.160;2024-02-04T02:26:33;11.60;;;4.10;;
11921;SDS011;6021;51.182;3.160;2024-02-04T02:29:04;9.33;;;3.93;;
11921;SDS011;6021;51.182;3.160;2024-02-04T02:31:35;10.97;;;4.27;;
11921;SDS011;6021;51.182;3.160;2024-02-04T02:34:05;11.43;;;4.50;;
11921;SDS011;6021;51.182;3.160;2024-02-04T02:36:34;11.47;;;4.53;;
11921;SDS011;6021;51.182;3.160;2024-02-04T02:39:18;13.83;;;4.87;;
11921;SDS011;6021;51.182;3.160;2024-02-04T02:41:49;12.80;;;4.83;;
11921;SDS011;6021;51.182;3.160;2024-02-04T02:44:19;10.60;;;4.50;;
11921;SDS011;6021;51.182;3.160;2024-02-04T02:46:48;10.43;;;4.20;;
11921;SDS011;6021;51.182;3.160;2024-02-04T02:49:17;10.90;;;4.23;;
11921;SDS011;6021;51.182;3.160;2024-02-04T02:51:46;12.17;;;4.43;;
11921;SDS011;6021;51.182;3.160;2024-02-04T02:54:14;11.40;;;4.10;;
11921;SDS011;6021;51.182;3.160;2024-02-04T02:56:42;10.63;;;4.17;;
11921;SDS011;6021;51.182;3.160;2024-02-04T02:59:11;9.87;;;3.90;;
11921;SDS011;6021;51.182;3.160;2024-02-04T03:01:39;12.80;;;4.23;;
11921;SDS011;6021;51.182;3.160;2024-02-04T03:04:08;10.37;;;3.93;;
11921;SDS011;6021;51.182;3.160;2024-02-04T03:06:36;8.43;;;4.23;;
11921;SDS011;6021;51.182;3.160;2024-02-04T03:09:04;11.67;;;4.10;;
11921;SDS011;6021;51.182;3.160;2024-02-04T03:11:33;10.43;;;3.73;;
11921;SDS011;6021;51.182;3.160;2024-02-04T03:14:03;10.00;;;3.70;;
11921;SDS011;6021;51.182;3.160;2024-02-04T03:16:32;7.37;;;3.43;;
11921;SDS011;6021;51.182;3.160;2024-02-04T03:19:04;9.70;;;3.80;;
11921;SDS011;6021;51.182;3.160;2024-02-04T03:21:33;9.43;;;3.90;;
11921;SDS011;6021;51.182;3.160;2024-02-04T03:24:01;12.87;;;4.20;;
11921;SDS011;6021;51.182;3.160;2024-02-04T03:26:29;12.27;;;4.33;;
11921;SDS011;6021;51.182;3.160;2024-02-04T03:28:58;10.03;;;4.30;;
11921;SDS011;6021;51.182;3.160;2024-02-04T03:31:27;13.40;;;4.80;;
11921;SDS011;6021;51.182;3.160;2024-02-04T03:33:55;13.07;;;4.83;;
11921;SDS011;6021;51.182;3.160;2024-02-04T03:36:24;11.70;;;4.80;;
11921;SDS011;6021;51.182;3.160;2024-02-04T03:38:52;12.93;;;5.30;;
11921;SDS011;6021;51.182;3.160;2024-02-04T03:41:21;15.93;;;4.57;;
11921;SDS011;6021;51.182;3.160;2024-02-04T03:43:49;12.43;;;5.40;;
11921;SDS011;6021;51.182;3.160;2024-02-04T03:46:18;12.47;;;4.60;;
11921;SDS011;6021;51.182;3.160;2024-02-04T03:48:46;11.03;;;4.90;;
11921;SDS011;6021;51.182;3.160;2024-02-04T03:51:15;11.67;;;4.40;;
11921;SDS011;6021;51.182;3.160;2024-02-04T03:53:44;9.20;;;4.27;;
11921;SDS011;6021;51.182;3.160;2024-02-04T03:56:14;7.13;;;3.60;;
11921;SDS011;6021;51.182;3.160;2024-02-04T03:58:42;4.57;;;3.10;;
11921;SDS011;6021;51.182;3.160;2024-02-04T04:01:11;9.77;;;3.60;;
11921;SDS011;6021;51.182;3.160;2024-02-04T04:03:40;4.93;;;2.90;;
11921;SDS011;6021;51.182;3.160;2024-02-04T04:06:10;7.53;;;3.63;;
11921;SDS011;6021;51.182;3.160;2024-02-04T04:08:38;11.93;;;4.03;;
11921;SDS011;6021;51.182;3.160;2024-02-04T04:11:08;6.90;;;4.23;;
11921;SDS011;6021;51.182;3.160;2024-02-04T04:13:37;7.80;;;4.33;;
11921;SDS011;6021;51.182;3.160;2024-02-04T04:16:06;11.33;;;5.23;;
11921;SDS011;6021;51.182;3.160;2024-02-04T04:18:34;15.20;;;4.97;;
11921;SDS011;6021;51.182;3.160;2024-02-04T04:21:03;10.60;;;4.70;;
11921;SDS011;6021;51.182;3.160;2024-02-04T04:23:31;10.63;;;4.43;;
11921;SDS011;6021;51.182;3.160;2024-02-04T04:26:00;7.90;;;4.00;;
11921;SDS011;6021;51.182;3.160;2024-02-04T04:28:28;12.90;;;4.47;;
11921;SDS011;6021;51.182;3.160;2024-02-04T04:30:56;9.03;;;3.93;;
11921;SDS011;6021;51.182;3.160;2024-02-04T04:33:25;9.70;;;4.20;;
11921;SDS011;6021;51.182;3.160;2024-02-04T04:35:53;8.37;;;3.80;;
11921;SDS011;6021;51.182;3.160;2024-02-04T04:38:23;11.23;;;4.20;;
11921;SDS011;6021;51.182;3.160;2024-02-04T04:40:52;8.73;;;3.87;;
11921;SDS011;6021;51.182;3.160;2024-02-04T04:43:20;8.50;;;4.20;;
11921;SDS011;6021;51.182;3.160;2024-02-04T04:45:48;13.77;;;5.10;;
11921;SDS011;6021;51.182;3.160;2024-02-04T04:48:17;10.80;;;4.63;;
11921;SDS011;6021;51.182;3.160;2024-02-04T04:50:45;7.23;;;4.60;;
11921;SDS011;6021;51.182;3.160;2024-02-04T04:53:14;9.50;;;4.40;;
11921;SDS011;6021;51.182;3.160;2024-02-04T04:55:42;8.87;;;5.07;;
11921;SDS011;6021;51.182;3.160;2024-02-04T04:58:11;9.63;;;5.33;;
11921;SDS011;6021;51.182;3.160;2024-02-04T05:00:39;9.73;;;5.87;;
11921;SDS011;6021;51.182;3.160;2024-02-04T05:03:07;12.30;;;5.97;;
11921;SDS011;6021;51.182;3.160;2024-02-04T05:05:36;9.17;;;4.60;;
11921;SDS011;6021;51.182;3.160;2024-02-04T05:08:04;8.43;;;4.30;;
11921;SDS011;6021;51.182;3.160;2024-02-04T05:10:32;7.73;;;3.93;;
11921;SDS011;6021;51.182;3.160;2024-02-04T05:13:01;6.97;;;3.33;;
11921;SDS011;6021;51.182;3.160;2024-02-04T05:15:29;6.47;;;3.37;;
11921;SDS011;6021;51.182;3.160;2024-02-04T05:17:58;6.07;;;3.20;;
11921;SDS011;6021;51.182;3.160;2024-02-04T05:20:26;11.13;;;3.53;;
11921;SDS011;6021;51.182;3.160;2024-02-04T05:22:55;5.10;;;3.13;;
11921;SDS011;6021;51.182;3.160;2024-02-04T05:25:24;6.07;;;3.37;;
11921;SDS011;6021;51.182;3.160;2024-02-04T05:27:52;5.77;;;3.27;;
11921;SDS011;6021;51.182;3.160;2024-02-04T05:30:20;10.13;;;3.67;;
11921;SDS011;6021;51.182;3.160;2024-02-04T05:32:49;6.13;;;3.47;;
11921;SDS011;6021;51.182;3.160;2024-02-04T05:35:17;6.47;;;3.20;;
11921;SDS011;6021;51.182;3.160;2024-02-04T05:37:45;7.40;;;3.07;;
11921;SDS011;6021;51.182;3.160;2024-02-04T05:40:14;7.67;;;3.00;;
11921;SDS011;6021;51.182;3.160;2024-02-04T05:42:43;7.60;;;2.83;;
11921;SDS011;6021;51.182;3.160;2024-02-04T05:45:12;6.33;;;2.93;;
11921;SDS011;6021;51.182;3.160;2024-02-04T05:47:40;5.60;;;3.00;;
11921;SDS011;6021;51.182;3.160;2024-02-04T05:50:08;6.07;;;2.57;;
11921;SDS011;6021;51.182;3.160;2024-02-04T05:52:37;6.43;;;3.03;;
11921;SDS011;6021;51.182;3.160;2024-02-04T05:55:06;6.10;;;3.57;;
11921;SDS011;6021;51.182;3.160;2024-02-04T05:57:34;7.67;;;4.07;;
11921;SDS011;6021;51.182;3.160;2024-02-04T06:00:03;7.90;;;4.20;;
11921;SDS011;6021;51.182;3.160;2024-02-04T06:02:31;10.37;;;4.37;;
11921;SDS011;6021;51.182;3.160;2024-02-04T06:05:00;7.33;;;3.83;;
11921;SDS011;6021;51.182;3.160;2024-02-04T06:07:28;7.97;;;4.03;;
11921;SDS011;6021;51.182;3.160;2024-02-04T06:09:56;6.10;;;3.70;;
11921;SDS011;6021;51.182;3.160;2024-02-04T06:12:26;8.80;;;4.20;;
11921;SDS011;6021;51.182;3.160;2024-02-04T06:14:55;8.17;;;3.87;;
11921;SDS011;6021;51.182;3.160;2024-02-04T06:17:23;9.00;;;4.07;;
11921;SDS011;6021;51.182;3.160;2024-02-04T06:19:51;8.20;;;3.67;;
11921;SDS011;6021;51.182;3.160;2024-02-04T06:22:20;7.67;;;3.80;;
11921;SDS011;6021;51.182;3.160;2024-02-04T06:24:48;5.57;;;3.47;;
11921;SDS011;6021;51.182;3.160;2024-02-04T06:27:16;10.23;;;3.93;;
11921;SDS011;6021;51.182;3.160;2024-02-04T06:29:45;8.27;;;3.70;;
11921;SDS011;6021;51.182;3.160;2024-02-04T06:32:13;8.23;;;3.50;;
11921;SDS011;6021;51.182;3.160;2024-02-04T06:34:41;9.40;;;3.33;;
11921;SDS011;6021;51.182;3.160;2024-02-04T06:37:10;7.67;;;3.67;;
11921;SDS011;6021;51.182;3.160;2024-02-04T06:39:38;6.13;;;2.93;;
11921;SDS011;6021;51.182;3.160;2024-02-04T06:42:06;5.53;;;2.90;;
11921;SDS011;6021;51.182;3.160;2024-02-04T06:44:35;7.13;;;2.70;;
11921;SDS011;6021;51.182;3.160;2024-02-04T06:47:03;6.80;;;2.70;;
11921;SDS011;6021;51.182;3.160;2024-02-04T06:49:32;6.13;;;2.90;;
11921;SDS011;6021;51.182;3.160;2024-02-04T06:52:00;6.07;;;2.77;;
11921;SDS011;6021;51.182;3.160;2024-02-04T06:54:28;4.57;;;2.60;;
11921;SDS011;6021;51.182;3.160;2024-02-04T06:56:57;6.10;;;2.90;;
11921;SDS011;6021;51.182;3.160;2024-02-04T06:59:25;7.07;;;2.43;;
11921;SDS011;6021;51.182;3.160;2024-02-04T07:01:53;4.60;;;2.30;;
11921;SDS011;6021;51.182;3.160;2024-02-04T07:04:22;7.77;;;2.60;;
11921;SDS011;6021;51.182;3.160;2024-02-04T07:06:52;12.30;;;2.70;;
11921;SDS011;6021;51.182;3.160;2024-02-04T07:09:20;7.13;;;2.87;;
11921;SDS011;6021;51.182;3.160;2024-02-04T07:11:48;7.63;;;2.50;;
11921;SDS011;6021;51.182;3.160;2024-02-04T07:14:17;7.27;;;2.60;;
11921;SDS011;6021;51.182;3.160;2024-02-04T07:16:45;6.30;;;2.80;;
11921;SDS011;6021;51.182;3.160;2024-02-04T07:19:13;9.80;;;2.90;;
11921;SDS011;6021;51.182;3.160;2024-02-04T07:21:42;7.50;;;2.90;;
11921;SDS011;6021;51.182;3.160;2024-02-04T07:24:11;7.73;;;2.77;;
11921;SDS011;6021;51.182;3.160;2024-02-04T07:26:39;5.20;;;2.80;;
11921;SDS011;6021;51.182;3.160;2024-02-04T07:29:07;9.07;;;2.63;;
11921;SDS011;6021;51.182;3.160;2024-02-04T07:31:36;6.07;;;2.67;;
11921;SDS011;6021;51.182;3.160;2024-02-04T07:34:04;7.13;;;2.40;;
11921;SDS011;6021;51.182;3.160;2024-02-04T07:36:33;6.40;;;2.20;;
11921;SDS011;6021;51.182;3.160;2024-02-04T07:39:01;8.27;;;2.50;;
11921;SDS011;6021;51.182;3.160;2024-02-04T07:41:31;7.33;;;2.40;;
11921;SDS011;6021;51.182;3.160;2024-02-04T07:43:59;5.63;;;2.10;;
11921;SDS011;6021;51.182;3.160;2024-02-04T07:46:27;7.93;;;2.40;;
11921;SDS011;6021;51.182;3.160;2024-02-04T07:48:56;9.07;;;2.30;;
11921;SDS011;6021;51.182;3.160;2024-02-04T07:51:24;4.27;;;2.47;;
11921;SDS011;6021;51.182;3.160;2024-02-04T07:53:53;7.23;;;2.67;;
11921;SDS011;6021;51.182;3.160;2024-02-04T07:56:21;4.80;;;2.37;;
11921;SDS011;6021;51.182;3.160;2024-02-04T07:58:49;7.77;;;2.67;;
11921;SDS011;6021;51.182;3.160;2024-02-04T08:01:18;6.63;;;2.60;;
11921;SDS011;6021;51.182;3.160;2024-02-04T08:03:47;7.67;;;2.80;;
11921;SDS011;6021;51.182;3.160;2024-02-04T08:06:15;6.57;;;2.40;;
11921;SDS011;6021;51.182;3.160;2024-02-04T08:08:44;9.27;;;2.63;;
11921;SDS011;6021;51.182;3.160;2024-02-04T08:11:17;5.47;;;2.40;;
11921;SDS011;6021;51.182;3.160;2024-02-04T08:13:46;5.50;;;2.40;;
11921;SDS011;6021;51.182;3.160;2024-02-04T08:16:14;6.30;;;2.70;;
11921;SDS011;6021;51.182;3.160;2024-02-04T08:18:42;6.33;;;2.70;;
11921;SDS011;6021;51.182;3.160;2024-02-04T08:21:11;6.63;;;2.90;;
11921;SDS011;6021;51.182;3.160;2024-02-04T08:23:39;7.47;;;2.80;;
11921;SDS011;6021;51.182;3.160;2024-02-04T08:26:07;9.37;;;2.60;;
11921;SDS011;6021;51.182;3.160;2024-02-04T08:28:36;7.50;;;2.77;;
11921;SDS011;6021;51.182;3.160;2024-02-04T08:31:04;6.53;;;2.67;;
11921;SDS011;6021;51.182;3.160;2024-02-04T08:33:32;6.97;;;2.57;;
11921;SDS011;6021;51.182;3.160;2024-02-04T08:36:01;5.60;;;2.67;;
11921;SDS011;6021;51.182;3.160;2024-02-04T08:38:29;7.50;;;3.10;;
11921;SDS011;6021;51.182;3.160;2024-02-04T08:40:58;5.53;;;2.57;;
11921;SDS011;6021;51.182;3.160;2024-02-04T08:43:26;7.17;;;3.00;;
11921;SDS011;6021;51.182;3.160;2024-02-04T08:45:54;6.30;;;2.73;;
11921;SDS011;6021;51.182;3.160;2024-02-04T08:48:23;9.93;;;3.30;;
11921;SDS011;6021;51.182;3.160;2024-02-04T08:50:51;7.60;;;2.93;;
11921;SDS011;6021;51.182;3.160;2024-02-04T08:53:21;8.57;;;2.83;;
11921;SDS011;6021;51.182;3.160;2024-02-04T08:55:50;7.83;;;3.23;;
11921;SDS011;6021;51.182;3.160;2024-02-04T08:58:18;7.43;;;3.10;;
11921;SDS011;6021;51.182;3.160;2024-02-04T09:00:47;7.43;;;2.97;;
11921;SDS011;6021;51.182;3.160;2024-02-04T09:03:15;5.53;;;2.77;;
11921;SDS011;6021;51.182;3.160;2024-02-04T09:05:44;6.30;;;2.70;;
11921;SDS011;6021;51.182;3.160;2024-02-04T09:08:13;7.67;;;3.17;;
11921;SDS011;6021;51.182;3.160;2024-02-04T09:10:41;6.47;;;2.87;;
11921;SDS011;6021;51.182;3.160;2024-02-04T09:13:10;5.33;;;2.37;;
11921;SDS011;6021;51.182;3.160;2024-02-04T09:15:38;7.50;;;2.40;;
11921;SDS011;6021;51.182;3.160;2024-02-04T09:18:06;6.63;;;2.37;;
11921;SDS011;6021;51.182;3.160;2024-02-04T09:20:35;5.60;;;2.47;;
11921;SDS011;6021;51.182;3.160;2024-02-04T09:23:03;6.20;;;2.20;;
11921;SDS011;6021;51.182;3.160;2024-02-04T09:25:33;4.57;;;2.17;;
11921;SDS011;6021;51.182;3.160;2024-02-04T09:28:01;4.40;;;2.23;;
11921;SDS011;6021;51.182;3.160;2024-02-04T09:30:30;6.63;;;2.23;;
11921;SDS011;6021;51.182;3.160;2024-02-04T09:32:58;4.63;;;2.10;;
11921;SDS011;6021;51.182;3.160;2024-02-04T09:35:27;3.40;;;2.10;;
11921;SDS011;6021;51.182;3.160;2024-02-04T09:37:55;5.23;;;2.30;;
11921;SDS011;6021;51.182;3.160;2024-02-04T09:40:24;4.93;;;2.20;;
11921;SDS011;6021;51.182;3.160;2024-02-04T09:42:53;5.43;;;2.10;;
11921;SDS011;6021;51.182;3.160;2024-02-04T09:45:21;6.37;;;2.30;;
11921;SDS011;6021;51.182;3.160;2024-02-04T09:47:50;4.50;;;2.23;;
11921;SDS011;6021;51.182;3.160;2024-02-04T09:50:21;3.80;;;2.20;;
11921;SDS011;6021;51.182;3.160;2024-02-04T09:52:49;5.83;;;2.33;;
11921;SDS011;6021;51.182;3.160;2024-02-04T09:55:20;7.70;;;2.77;;
11921;SDS011;6021;51.182;3.160;2024-02-04T09:57:49;7.63;;;2.70;;
11921;SDS011;6021;51.182;3.160;2024-02-04T10:00:22;7.80;;;2.73;;
11921;SDS011;6021;51.182;3.160;2024-02-04T10:02:49;8.83;;;3.10;;
11921;SDS011;6021;51.182;3.160;2024-02-04T10:05:17;7.77;;;2.70;;
11921;SDS011;6021;51.182;3.160;2024-02-04T10:07:46;8.63;;;3.27;;
11921;SDS011;6021;51.182;3.160;2024-02-04T10:10:16;5.77;;;2.67;;
11921;SDS011;6021;51.182;3.160;2024-02-04T10:12:44;5.47;;;2.47;;
11921;SDS011;6021;51.182;3.160;2024-02-04T10:15:13;5.60;;;2.40;;
11921;SDS011;6021;51.182;3.160;2024-02-04T10:17:45;6.20;;;2.67;;
11921;SDS011;6021;51.182;3.160;2024-02-04T10:20:13;5.30;;;2.13;;
11921;SDS011;6021;51.182;3.160;2024-02-04T10:22:41;5.60;;;2.60;;
11921;SDS011;6021;51.182;3.160;2024-02-04T10:25:10;7.60;;;2.40;;
11921;SDS011;6021;51.182;3.160;2024-02-04T10:27:39;8.27;;;2.70;;
11921;SDS011;6021;51.182;3.160;2024-02-04T10:30:08;7.10;;;2.67;;
11921;SDS011;6021;51.182;3.160;2024-02-04T10:32:37;7.40;;;2.97;;
11921;SDS011;6021;51.182;3.160;2024-02-04T10:35:06;7.47;;;2.93;;
11921;SDS011;6021;51.182;3.160;2024-02-04T10:37:35;9.27;;;3.17;;
11921;SDS011;6021;51.182;3.160;2024-02-04T10:40:04;8.67;;;2.67;;
11921;SDS011;6021;51.182;3.160;2024-02-04T10:42:34;6.63;;;2.50;;
11921;SDS011;6021;51.182;3.160;2024-02-04T10:45:05;7.43;;;2.90;;
11921;SDS011;6021;51.182;3.160;2024-02-04T10:47:39;10.23;;;3.23;;
11921;SDS011;6021;51.182;3.160;2024-02-04T10:50:12;7.23;;;2.93;;
11921;SDS011;6021;51.182;3.160;2024-02-04T10:52:39;4.80;;;2.73;;
11921;SDS011;6021;51.182;3.160;2024-02-04T10:55:10;11.30;;;3.03;;
11921;SDS011;6021;51.182;3.160;2024-02-04T10:57:39;8.13;;;3.40;;
11921;SDS011;6021;51.182;3.160;2024-02-04T11:00:08;7.97;;;2.70;;
11921;SDS011;6021;51.182;3.160;2024-02-04T11:02:38;10.93;;;3.13;;
11921;SDS011;6021;51.182;3.160;2024-02-04T11:05:07;7.03;;;2.90;;
11921;SDS011;6021;51.182;3.160;2024-02-04T11:07:37;7.47;;;3.00;;
11921;SDS011;6021;51.182;3.160;2024-02-04T11:10:05;6.20;;;2.40;;
11921;SDS011;6021;51.182;3.160;2024-02-04T11:12:34;6.80;;;2.83;;
11921;SDS011;6021;51.182;3.160;2024-02-04T11:15:06;7.80;;;2.80;;
11921;SDS011;6021;51.182;3.160;2024-02-04T11:20:36;5.33;;;2.70;;
11921;SDS011;6021;51.182;3.160;2024-02-04T11:23:35;7.83;;;3.07;;
11921;SDS011;6021;51.182;3.160;2024-02-04T11:25:54;7.93;;;3.17;;
11921;SDS011;6021;51.182;3.160;2024-02-04T11:28:24;10.10;;;3.13;;
11921;SDS011;6021;51.182;3.160;2024-02-04T11:30:54;9.53;;;3.23;;
11921;SDS011;6021;51.182;3.160;2024-02-04T11:33:23;10.43;;;3.27;;
11921;SDS011;6021;51.182;3.160;2024-02-04T11:36:02;7.27;;;3.27;;
11921;SDS011;6021;51.182;3.160;2024-02-04T11:38:36;7.97;;;3.40;;
11921;SDS011;6021;51.182;3.160;2024-02-04T11:41:02;8.13;;;3.40;;
11921;SDS011;6021;51.182;3.160;2024-02-04T11:43:34;12.57;;;3.57;;
11921;SDS011;6021;51.182;3.160;2024-02-04T11:46:06;10.70;;;3.70;;
11921;SDS011;6021;51.182;3.160;2024-02-04T11:48:34;10.60;;;3.63;;
11921;SDS011;6021;51.182;3.160;2024-02-04T11:51:05;9.67;;;3.50;;
11921;SDS011;6021;51.182;3.160;2024-02-04T11:53:34;12.33;;;3.50;;
11921;SDS011;6021;51.182;3.160;2024-02-04T11:56:03;8.43;;;3.37;;
11921;SDS011;6021;51.182;3.160;2024-02-04T11:58:33;8.47;;;3.50;;
11921;SDS011;6021;51.182;3.160;2024-02-04T12:01:01;10.17;;;3.33;;
11921;SDS011;6021;51.182;3.160;2024-02-04T12:03:36;9.53;;;3.40;;
11921;SDS011;6021;51.182;3.160;2024-02-04T12:06:05;8.13;;;3.23;;
11921;SDS011;6021;51.182;3.160;2024-02-04T12:08:35;10.07;;;3.37;;
11921;SDS011;6021;51.182;3.160;2024-02-04T12:11:05;8.37;;;3.43;;
11921;SDS011;6021;51.182;3.160;2024-02-04T12:13:34;8.33;;;3.20;;
11921;SDS011;6021;51.182;3.160;2024-02-04T12:16:05;7.67;;;3.13;;
11921;SDS011;6021;51.182;3.160;2024-02-04T12:18:35;8.53;;;3.10;;
11921;SDS011;6021;51.182;3.160;2024-02-04T12:21:04;13.07;;;3.33;;
11921;SDS011;6021;51.182;3.160;2024-02-04T12:23:32;11.23;;;3.40;;
11921;SDS011;6021;51.182;3.160;2024-02-04T12:26:01;9.20;;;3.40;;
11921;SDS011;6021;51.182;3.160;2024-02-04T12:28:29;10.20;;;3.50;;
11921;SDS011;6021;51.182;3.160;2024-02-04T12:30:58;11.17;;;3.50;;
11921;SDS011;6021;51.182;3.160;2024-02-04T12:33:26;12.33;;;3.70;;
11921;SDS011;6021;51.182;3.160;2024-02-04T12:35:55;10.37;;;3.53;;
11921;SDS011;6021;51.182;3.160;2024-02-04T12:38:25;9.70;;;3.50;;
11921;SDS011;6021;51.182;3.160;2024-02-04T12:41:00;8.37;;;2.93;;
11921;SDS011;6021;51.182;3.160;2024-02-04T12:43:25;10.93;;;3.43;;
11921;SDS011;6021;51.182;3.160;2024-02-04T12:45:55;10.00;;;3.40;;
11921;SDS011;6021;51.182;3.160;2024-02-04T12:48:25;9.03;;;3.50;;
11921;SDS011;6021;51.182;3.160;2024-02-04T12:50:55;13.43;;;3.47;;
11921;SDS011;6021;51.182;3.160;2024-02-04T12:53:23;9.97;;;3.27;;
11921;SDS011;6021;51.182;3.160;2024-02-04T12:55:57;11.50;;;3.27;;
11921;SDS011;6021;51.182;3.160;2024-02-04T12:58:23;11.80;;;3.30;;
11921;SDS011;6021;51.182;3.160;2024-02-04T13:01:01;13.87;;;3.97;;
11921;SDS011;6021;51.182;3.160;2024-02-04T13:03:31;12.30;;;3.70;;
11921;SDS011;6021;51.182;3.160;2024-02-04T13:06:00;13.00;;;3.17;;
11921;SDS011;6021;51.182;3.160;2024-02-04T13:08:29;9.97;;;3.40;;
11921;SDS011;6021;51.182;3.160;2024-02-04T13:10:57;12.50;;;3.77;;
11921;SDS011;6021;51.182;3.160;2024-02-04T13:13:26;11.30;;;3.40;;
11921;SDS011;6021;51.182;3.160;2024-02-04T13:15:55;10.33;;;3.60;;
11921;SDS011;6021;51.182;3.160;2024-02-04T13:18:23;11.30;;;3.50;;
11921;SDS011;6021;51.182;3.160;2024-02-04T13:20:52;14.47;;;3.73;;
11921;SDS011;6021;51.182;3.160;2024-02-04T13:23:20;12.90;;;3.43;;
11921;SDS011;6021;51.182;3.160;2024-02-04T13:25:48;11.53;;;3.33;;
11921;SDS011;6021;51.182;3.160;2024-02-04T13:28:17;10.97;;;3.50;;
11921;SDS011;6021;51.182;3.160;2024-02-04T13:30:47;11.37;;;3.07;;
11921;SDS011;6021;51.182;3.160;2024-02-04T13:33:15;13.33;;;3.60;;
11921;SDS011;6021;51.182;3.160;2024-02-04T13:35:43;9.67;;;3.20;;
11921;SDS011;6021;51.182;3.160;2024-02-04T13:38:12;13.07;;;3.70;;
11921;SDS011;6021;51.182;3.160;2024-02-04T13:40:41;10.57;;;3.77;;
11921;SDS011;6021;51.182;3.160;2024-02-04T13:43:09;12.27;;;3.83;;
11921;SDS011;6021;51.182;3.160;2024-02-04T13:45:38;14.93;;;3.67;;
11921;SDS011;6021;51.182;3.160;2024-02-04T13:48:06;11.30;;;3.70;;
11921;SDS011;6021;51.182;3.160;2024-02-04T13:50:35;13.30;;;3.43;;
11921;SDS011;6021;51.182;3.160;2024-02-04T13:53:03;12.57;;;3.90;;
11921;SDS011;6021;51.182;3.160;2024-02-04T13:55:32;12.80;;;3.60;;
11921;SDS011;6021;51.182;3.160;2024-02-04T13:58:00;11.27;;;3.60;;
11921;SDS011;6021;51.182;3.160;2024-02-04T14:00:29;10.07;;;3.13;;
11921;SDS011;6021;51.182;3.160;2024-02-04T14:02:59;11.70;;;3.50;;
11921;SDS011;6021;51.182;3.160;2024-02-04T14:05:27;10.07;;;3.70;;
11921;SDS011;6021;51.182;3.160;2024-02-04T14:07:56;10.67;;;3.60;;
11921;SDS011;6021;51.182;3.160;2024-02-04T14:10:24;12.37;;;3.50;;
11921;SDS011;6021;51.182;3.160;2024-02-04T14:12:53;13.80;;;3.40;;
11921;SDS011;6021;51.182;3.160;2024-02-04T14:15:21;10.53;;;3.40;;
11921;SDS011;6021;51.182;3.160;2024-02-04T14:17:49;10.40;;;3.63;;
11921;SDS011;6021;51.182;3.160;2024-02-04T14:20:18;9.23;;;3.50;;
11921;SDS011;6021;51.182;3.160;2024-02-04T14:22:46;11.57;;;3.30;;
11921;SDS011;6021;51.182;3.160;2024-02-04T14:25:15;13.67;;;3.63;;
11921;SDS011;6021;51.182;3.160;2024-02-04T14:27:43;8.50;;;3.10;;
11921;SDS011;6021;51.182;3.160;2024-02-04T14:30:12;11.33;;;3.47;;
11921;SDS011;6021;51.182;3.160;2024-02-04T14:32:40;14.83;;;3.90;;
11921;SDS011;6021;51.182;3.160;2024-02-04T14:35:09;12.53;;;3.60;;
11921;SDS011;6021;51.182;3.160;2024-02-04T14:37:40;11.73;;;3.37;;
11921;SDS011;6021;51.182;3.160;2024-02-04T14:40:12;9.97;;;3.30;;
11921;SDS011;6021;51.182;3.160;2024-02-04T14:42:40;16.30;;;4.00;;
11921;SDS011;6021;51.182;3.160;2024-02-04T14:45:09;12.73;;;3.87;;
11921;SDS011;6021;51.182;3.160;2024-02-04T14:47:38;14.73;;;3.80;;
11921;SDS011;6021;51.182;3.160;2024-02-04T14:50:07;9.53;;;3.53;;
11921;SDS011;6021;51.182;3.160;2024-02-04T14:52:35;10.97;;;3.67;;
11921;SDS011;6021;51.182;3.160;2024-02-04T14:55:04;10.50;;;3.73;;
11921;SDS011;6021;51.182;3.160;2024-02-04T14:57:32;9.90;;;3.13;;
11921;SDS011;6021;51.182;3.160;2024-02-04T15:00:01;9.17;;;3.30;;
11921;SDS011;6021;51.182;3.160;2024-02-04T15:02:29;11.37;;;3.43;;
11921;SDS011;6021;51.182;3.160;2024-02-04T15:04:58;11.53;;;3.40;;
11921;SDS011;6021;51.182;3.160;2024-02-04T15:07:27;13.80;;;3.60;;
11921;SDS011;6021;51.182;3.160;2024-02-04T15:09:56;14.33;;;4.13;;
11921;SDS011;6021;51.182;3.160;2024-02-04T15:12:25;14.80;;;3.17;;